createdAt,value
2023-04-02T00:00:20.250Z,100185.35
2023-04-02T00:03:10.904Z,100185.90
2023-04-02T00:05:44.240Z,100190.20
2023-04-02T00:08:23.854Z,100189.68
2023-04-02T00:10:56.283Z,100192.30
2023-04-02T00:13:35.039Z,100198.55
2023-04-02T00:16:08.574Z,100199.94
2023-04-02T00:18:44.310Z,100200.65
2023-04-02T00:21:21.358Z,100198.19
2023-04-02T00:23:53.504Z,100201.59
2023-04-02T00:26:32.800Z,100206.35
2023-04-02T00:29:05.386Z,100212.22
2023-04-02T00:31:39.002Z,100209.90
2023-04-02T00:34:15.182Z,100217.23
2023-04-02T00:36:46.486Z,100216.11
2023-04-02T00:39:22.556Z,100220.41
2023-04-02T00:41:56.605Z,100221.50
2023-04-02T00:44:30.103Z,100221.93
2023-04-02T00:47:04.470Z,100223.88
2023-04-02T00:49:38.889Z,100223.81
2023-04-02T00:52:13.468Z,100224.78
2023-04-02T00:54:48.481Z,100225.96
2023-04-02T00:57:22.962Z,100229.84
2023-04-02T00:59:58.036Z,100229.33
2023-04-02T01:02:32.582Z,100231.91
2023-04-02T01:05:19.848Z,100233.03
2023-04-02T01:08:02.300Z,100238.88
2023-04-02T01:10:50.370Z,100239.61
2023-04-02T01:13:30.164Z,100245.24
2023-04-02T01:16:06.545Z,100244.55
2023-04-02T01:18:48.498Z,100248.35
2023-04-02T01:21:34.171Z,100253.16
2023-04-02T01:24:07.456Z,100256.60
2023-04-02T01:26:52.300Z,100256.70
2023-04-02T01:29:25.680Z,100257.49
2023-04-02T01:32:00.324Z,100257.30
2023-04-02T01:34:31.950Z,100266.02
2023-04-02T01:37:13.087Z,100267.02
2023-04-02T01:39:49.180Z,100268.97
2023-04-02T01:42:25.449Z,100271.21
2023-04-02T01:45:03.049Z,100274.98
2023-04-02T01:47:34.615Z,100276.44
2023-04-02T01:50:20.489Z,100278.77
2023-04-02T01:52:54.050Z,100285.83
2023-04-02T01:55:33.993Z,100286.52
2023-04-02T01:58:05.013Z,100290.50
2023-04-02T02:00:35.297Z,100296.09
2023-04-02T02:03:07.119Z,100302.52
2023-04-02T02:05:37.995Z,100302.52
2023-04-02T02:08:20.589Z,100308.41
2023-04-02T02:10:51.521Z,100311.70
2023-04-02T02:13:22.624Z,100313.38
2023-04-02T02:15:51.805Z,100317.02
2023-04-02T02:18:23.661Z,100319.45
2023-04-02T02:20:56.510Z,100325.58
2023-04-02T02:23:29.989Z,100329.83
2023-04-02T02:26:01.269Z,100339.14
2023-04-02T02:28:36.165Z,100335.98
2023-04-02T02:31:12.758Z,100340.80
2023-04-02T02:33:46.957Z,100346.33
2023-04-02T02:36:24.652Z,100345.70
2023-04-02T02:38:58.364Z,100349.67
2023-04-02T02:41:35.487Z,100352.43
2023-04-02T02:44:14.414Z,100355.79
2023-04-02T02:46:49.048Z,100359.02
2023-04-02T02:49:22.283Z,100357.63
2023-04-02T02:51:58.090Z,100366.89
2023-04-02T02:54:30.219Z,100365.76
2023-04-02T02:57:04.062Z,100370.41
2023-04-02T02:59:35.576Z,100371.89
2023-04-02T03:02:07.531Z,100375.44
2023-04-02T03:04:38.535Z,100382.45
2023-04-02T03:07:09.480Z,100386.47
2023-04-02T03:09:46.944Z,100384.13
2023-04-02T03:12:34.965Z,100388.48
2023-04-02T03:15:15.055Z,100394.21
2023-04-02T03:17:51.232Z,100397.64
2023-04-02T03:20:37.104Z,100397.52
2023-04-02T03:23:15.035Z,100406.61
2023-04-02T03:25:51.079Z,100407.64
2023-04-02T03:28:27.254Z,100414.77
2023-04-02T03:31:03.049Z,100417.77
2023-04-02T03:33:37.781Z,100421.44
2023-04-02T03:36:18.330Z,100428.44
2023-04-02T03:38:52.403Z,100430.46
2023-04-02T03:41:28.479Z,100429.71
2023-04-02T03:44:01.544Z,100435.42
2023-04-02T03:46:37.480Z,100437.77
2023-04-02T03:49:13.534Z,100445.86
2023-04-02T03:51:57.566Z,100447.05
2023-04-02T03:54:29.390Z,100453.77
2023-04-02T03:57:00.911Z,100455.73
2023-04-02T03:59:39.910Z,100461.63
2023-04-02T04:02:33.108Z,100464.96
2023-04-02T04:05:05.820Z,100474.10
2023-04-02T04:07:41.105Z,100478.86
2023-04-02T04:10:21.138Z,100479.95
2023-04-02T04:12:54.723Z,100485.32
2023-04-02T04:15:30.905Z,100487.79
2023-04-02T04:18:09.802Z,100492.88
2023-04-02T04:20:50.186Z,100500.39
2023-04-02T04:23:24.186Z,100503.34
2023-04-02T04:26:02.029Z,100505.77
2023-04-02T04:28:42.390Z,100514.67
2023-04-02T04:31:21.167Z,100515.61
2023-04-02T04:33:57.144Z,100521.87
2023-04-02T04:36:31.478Z,100526.52
2023-04-02T04:39:08.842Z,100529.14
2023-04-02T04:41:42.422Z,100535.52
2023-04-02T04:44:19.049Z,100537.17
2023-04-02T04:46:57.935Z,100542.88
2023-04-02T04:49:32.796Z,100547.73
2023-04-02T04:52:12.494Z,100549.69
2023-04-02T04:54:43.207Z,100555.17
2023-04-02T04:57:27.208Z,100563.98
2023-04-02T05:00:03.237Z,100561.42
2023-04-02T05:02:42.802Z,100566.05
2023-04-02T05:05:21.886Z,100571.19
2023-04-02T05:07:59.822Z,100576.56
2023-04-02T05:10:38.347Z,100583.02
2023-04-02T05:13:16.176Z,100580.88
2023-04-02T05:15:55.080Z,100581.53
2023-04-02T05:18:39.071Z,100588.70
2023-04-02T05:21:18.182Z,100586.84
2023-04-02T05:23:53.561Z,100597.84
2023-04-02T05:26:30.065Z,100601.90
2023-04-02T05:29:14.803Z,100603.23
2023-04-02T05:31:53.689Z,100607.45
2023-04-02T05:34:29.703Z,100608.15
2023-04-02T05:37:27.142Z,100614.80
2023-04-02T05:41:20.817Z,100619.91
2023-04-02T05:45:02.077Z,100625.09
2023-04-02T05:48:30.603Z,100633.33
2023-04-02T05:51:02.583Z,100637.66
2023-04-02T05:53:38.786Z,100643.31
2023-04-02T05:56:16.130Z,100644.64
2023-04-02T05:58:51.064Z,100648.30
2023-04-02T06:01:32.642Z,100653.61
2023-04-02T06:04:12.699Z,100655.34
2023-04-02T06:06:52.526Z,100660.05
2023-04-02T06:09:33.785Z,100656.88
2023-04-02T06:12:09.404Z,100659.11
2023-04-02T06:14:40.110Z,100664.54
2023-04-02T06:17:14.409Z,100668.96
2023-04-02T06:19:45.706Z,100674.86
2023-04-02T06:22:24.277Z,100682.21
2023-04-02T06:24:59.275Z,100684.55
2023-04-02T06:27:30.775Z,100693.65
2023-04-02T06:30:30.291Z,100697.20
2023-04-02T06:32:58.846Z,100697.95
2023-04-02T06:35:30.204Z,100706.72
2023-04-02T06:38:04.992Z,100716.33
2023-04-02T06:40:42.423Z,100711.12
2023-04-02T06:43:21.115Z,100715.34
2023-04-02T06:45:55.610Z,100720.01
2023-04-02T06:48:28.267Z,100725.87
2023-04-02T06:51:05.415Z,100737.57
2023-04-02T06:53:45.760Z,100741.22
2023-04-02T06:56:34.130Z,100748.61
2023-04-02T06:59:26.504Z,100751.29
2023-04-02T07:02:01.604Z,100759.17
2023-04-02T07:04:33.008Z,100765.27
2023-04-02T07:07:05.883Z,100771.13
2023-04-02T07:09:41.881Z,100774.80
2023-04-02T07:12:14.426Z,100778.61
2023-04-02T07:14:45.194Z,100782.69
2023-04-02T07:17:18.206Z,100784.80
2023-04-02T07:19:50.678Z,100788.11
2023-04-02T07:22:21.852Z,100793.36
2023-04-02T07:24:52.730Z,100805.48
2023-04-02T07:27:43.602Z,100803.52
2023-04-02T07:30:18.672Z,100806.95
2023-04-02T07:32:49.629Z,100809.39
2023-04-02T07:35:23.185Z,100814.95
2023-04-02T07:38:04.195Z,100815.61
2023-04-02T07:40:43.529Z,100814.66
2023-04-02T07:43:14.482Z,100818.08
2023-04-02T07:45:45.342Z,100818.73
2023-04-02T07:48:16.131Z,100818.52
2023-04-02T07:50:46.988Z,100820.73
2023-04-02T07:53:29.133Z,100826.85
2023-04-02T07:56:04.813Z,100822.40
2023-04-02T07:58:40.628Z,100827.64
2023-04-02T08:01:21.664Z,100844.09
2023-04-02T08:03:54.447Z,100844.98
2023-04-02T08:06:28.687Z,100850.68
2023-04-02T08:09:02.204Z,100857.93
2023-04-02T08:11:37.141Z,100866.55
2023-04-02T08:14:11.192Z,100870.73
2023-04-02T08:17:02.574Z,100870.77
2023-04-02T08:19:36.915Z,100868.42
2023-04-02T08:22:17.456Z,100873.55
2023-04-02T08:24:48.165Z,100874.23
2023-04-02T08:27:18.935Z,100881.33
2023-04-02T08:29:49.864Z,100882.48
2023-04-02T08:32:20.544Z,100882.92
2023-04-02T08:34:51.242Z,100884.98
2023-04-02T08:37:22.048Z,100884.56
2023-04-02T08:39:53.455Z,100892.36
2023-04-02T08:42:34.861Z,100898.13
2023-04-02T08:47:53.606Z,100896.50
2023-04-02T08:50:31.605Z,100898.83
2023-04-02T08:53:05.280Z,100900.48
2023-04-02T08:55:42.123Z,100905.50
2023-04-02T08:58:26.271Z,100901.05
2023-04-02T09:01:01.709Z,100900.58
2023-04-02T09:03:40.141Z,100906.91
2023-04-02T09:06:16.540Z,100905.79
2023-04-02T09:08:49.944Z,100906.04
2023-04-02T09:11:27.483Z,100910.66
2023-04-02T09:13:59.988Z,100913.95
2023-04-02T09:16:43.144Z,100917.23
2023-04-02T09:19:19.402Z,100913.70
2023-04-02T09:22:00.565Z,100912.40
2023-04-02T09:24:29.649Z,100909.50
2023-04-02T09:27:03.414Z,100907.45
2023-04-02T09:29:45.866Z,100914.25
2023-04-02T09:32:27.282Z,100916.21
2023-04-02T09:35:22.443Z,100917.69
2023-04-02T09:38:29.009Z,100922.73
2023-04-02T09:41:02.213Z,100925.86
2023-04-02T09:43:35.103Z,100930.36
2023-04-02T09:46:16.346Z,100932.09
2023-04-02T09:48:52.237Z,100935.02
2023-04-02T09:51:25.384Z,100941.55
2023-04-02T09:54:12.709Z,100944.18
2023-04-02T09:57:01.028Z,100948.36
2023-04-02T09:59:31.841Z,100955.16
2023-04-02T10:02:03.353Z,100957.66
2023-04-02T10:04:40.128Z,100963.89
2023-04-02T10:07:32.614Z,100968.73
2023-04-02T10:10:15.698Z,100973.94
2023-04-02T10:12:49.162Z,100979.16
2023-04-02T10:15:26.047Z,100984.25
2023-04-02T10:18:06.680Z,100987.12
2023-04-02T10:20:50.452Z,100989.25
2023-04-02T10:23:26.981Z,100989.30
2023-04-02T10:26:07.134Z,100989.57
2023-04-02T10:28:49.374Z,100993.16
2023-04-02T10:31:26.267Z,100998.50
2023-04-02T10:34:04.595Z,100996.73
2023-04-02T10:36:49.524Z,101004.04
2023-04-02T10:39:24.639Z,101005.66
2023-04-02T10:42:03.499Z,101003.33
2023-04-02T10:44:43.521Z,101008.77
2023-04-02T10:47:29.711Z,101010.48
2023-04-02T10:50:18.605Z,101009.91
2023-04-02T10:52:56.626Z,101014.54
2023-04-02T10:55:32.202Z,101018.20
2023-04-02T10:58:15.141Z,101026.06
2023-04-02T11:00:47.374Z,101029.18
2023-04-02T11:03:24.298Z,101036.52
2023-04-02T11:05:59.288Z,101038.08
2023-04-02T11:08:40.413Z,101040.96
2023-04-02T11:11:13.464Z,101050.08
2023-04-02T11:13:52.170Z,101044.35
2023-04-02T11:16:23.616Z,101047.82
2023-04-02T11:19:24.201Z,101047.20
2023-04-02T11:22:00.324Z,101052.60
2023-04-02T11:24:45.705Z,101057.81
2023-04-02T11:27:24.608Z,101061.85
2023-04-02T11:30:01.537Z,101064.45
2023-04-02T11:32:43.106Z,101074.64
2023-04-02T11:35:36.087Z,101075.00
2023-04-02T11:38:47.580Z,101079.06
2023-04-02T11:42:01.780Z,101081.30
2023-04-02T11:44:32.522Z,101080.40
2023-04-02T11:47:20.563Z,101087.13
2023-04-02T11:50:35.332Z,101098.52
2023-04-02T11:53:18.829Z,101103.26
2023-04-02T11:56:08.419Z,101107.27
2023-04-02T11:59:05.242Z,101115.34
2023-04-02T12:01:55.582Z,101117.98
2023-04-02T12:05:03.334Z,101125.49
2023-04-02T12:08:10.740Z,101125.96
2023-04-02T12:10:55.160Z,101124.44
2023-04-02T12:13:52.509Z,101126.17
2023-04-02T12:16:25.702Z,101133.15
2023-04-02T12:18:56.718Z,101133.64
2023-04-02T12:21:29.374Z,101136.35
2023-04-02T12:24:00.948Z,101135.98
2023-04-02T12:26:34.658Z,101140.42
2023-04-02T12:29:24.724Z,101140.77
2023-04-02T12:31:57.212Z,101142.14
2023-04-02T12:34:30.659Z,101143.55
2023-04-02T12:37:05.097Z,101146.35
2023-04-02T12:39:36.358Z,101153.65
2023-04-02T12:42:24.393Z,101153.05
2023-04-02T12:44:57.754Z,101156.23
2023-04-02T12:47:29.551Z,101158.54
2023-04-02T12:50:25.481Z,101159.63
2023-04-02T12:52:55.285Z,101166.09
2023-04-02T12:55:28.951Z,101167.44
2023-04-02T13:00:37.248Z,101173.15
2023-04-02T13:03:22.327Z,101177.55
2023-04-02T13:05:55.719Z,101182.23
2023-04-02T13:08:30.827Z,101192.11
2023-04-02T13:11:04.057Z,101192.13
2023-04-02T13:13:38.559Z,101193.66
2023-04-02T13:16:26.776Z,101197.56
2023-04-02T13:19:23.957Z,101198.84
2023-04-02T13:21:59.585Z,101198.77
2023-04-02T13:24:32.288Z,101196.84
2023-04-02T13:27:04.066Z,101202.50
2023-04-02T13:29:36.029Z,101205.45
2023-04-02T13:32:12.725Z,101205.18
2023-04-02T13:34:47.213Z,101209.73
2023-04-02T13:37:19.306Z,101212.98
2023-04-02T13:39:49.979Z,101210.85
2023-04-02T13:42:23.585Z,101206.83
2023-04-02T13:44:54.294Z,101210.58
2023-04-02T13:47:25.014Z,101214.23
2023-04-02T13:49:55.615Z,101216.63
2023-04-02T13:52:26.266Z,101210.19
2023-04-02T13:54:58.128Z,101212.02
2023-04-02T13:57:28.884Z,101214.91
2023-04-02T13:59:59.619Z,101216.88
2023-04-02T14:02:31.258Z,101214.20
2023-04-02T14:05:28.814Z,101213.42
2023-04-02T14:08:09.112Z,101217.48
2023-04-02T14:10:58.322Z,101220.45
2023-04-02T14:13:57.161Z,101219.60
2023-04-02T14:16:42.240Z,101231.23
2023-04-02T14:19:24.846Z,101226.39
2023-04-02T14:22:05.699Z,101226.52
2023-04-02T14:24:46.546Z,101225.70
2023-04-02T14:27:29.432Z,101228.36
2023-04-02T14:30:14.887Z,101227.92
2023-04-02T14:32:57.468Z,101225.31
2023-04-02T14:35:33.907Z,101229.75
2023-04-02T14:38:16.391Z,101233.44
2023-04-02T14:40:56.694Z,101227.17
2023-04-02T14:43:31.202Z,101233.24
2023-04-02T14:46:03.709Z,101230.41
2023-04-02T14:48:45.690Z,101232.94
2023-04-02T14:51:23.686Z,101229.15
2023-04-02T14:54:04.261Z,101231.35
2023-04-02T14:56:44.362Z,101224.99
2023-04-02T14:59:29.185Z,101231.13
2023-04-02T15:02:03.591Z,101231.50
2023-04-02T15:04:38.138Z,101227.27
2023-04-02T15:07:17.798Z,101233.70
2023-04-02T15:09:53.226Z,101237.23
2023-04-02T15:12:28.785Z,101232.83
2023-04-02T15:15:03.882Z,101231.78
2023-04-02T15:17:34.669Z,101232.57
2023-04-02T15:20:15.358Z,101235.73
2023-04-02T15:23:01.001Z,101243.02
2023-04-02T15:25:39.097Z,101242.00
2023-04-02T15:28:19.959Z,101250.14
2023-04-02T15:30:54.265Z,101251.95
2023-04-02T15:33:48.401Z,101252.85
2023-04-02T15:36:43.944Z,101255.24
2023-04-02T15:39:29.468Z,101263.91
2023-04-02T15:42:16.409Z,101266.38
2023-04-02T15:44:59.073Z,101267.38
2023-04-02T15:47:40.149Z,101270.39
2023-04-02T15:50:36.023Z,101272.96
2023-04-02T15:53:19.359Z,101277.43
2023-04-02T15:55:54.840Z,101277.02
2023-04-02T15:58:39.461Z,101274.97
2023-04-02T16:01:17.687Z,101281.90
2023-04-02T16:04:03.817Z,101285.27
2023-04-02T16:06:45.734Z,101290.33
2023-04-02T16:09:26.694Z,101293.17
2023-04-02T16:12:08.943Z,101295.60
2023-04-02T16:15:00.472Z,101301.45
2023-04-02T16:17:37.126Z,101310.73
2023-04-02T16:20:31.167Z,101314.03
2023-04-02T16:23:07.087Z,101315.82
2023-04-02T16:25:45.847Z,101320.78
2023-04-02T16:28:24.001Z,101322.88
2023-04-02T16:31:02.801Z,101329.14
2023-04-02T16:33:43.876Z,101332.84
2023-04-02T16:36:25.024Z,101334.44
2023-04-02T16:38:59.469Z,101337.84
2023-04-02T16:41:48.746Z,101343.02
2023-04-02T16:44:29.481Z,101344.79
2023-04-02T16:47:18.255Z,101345.83
2023-04-02T16:49:56.837Z,101355.26
2023-04-02T16:52:43.025Z,101357.59
2023-04-02T16:55:36.900Z,101365.80
2023-04-02T16:58:22.998Z,101372.73
2023-04-02T17:00:58.547Z,101375.67
2023-04-02T17:04:00.709Z,101378.75
2023-04-02T17:06:42.214Z,101387.60
2023-04-02T17:09:23.908Z,101389.97
2023-04-02T17:12:22.447Z,101393.54
2023-04-02T17:14:55.221Z,101397.36
2023-04-02T17:17:26.502Z,101397.28
2023-04-02T17:20:01.580Z,101401.41
2023-04-02T17:22:33.191Z,101410.55
2023-04-02T17:25:12.649Z,101411.48
2023-04-02T17:27:52.341Z,101418.30
2023-04-02T17:30:29.956Z,101423.42
2023-04-02T17:33:00.742Z,101423.23
2023-04-02T17:35:41.871Z,101427.77
2023-04-02T17:38:17.344Z,101436.41
2023-04-02T17:40:54.185Z,101438.75
2023-04-02T17:43:41.287Z,101444.92
2023-04-02T17:46:22.515Z,101450.77
2023-04-02T17:49:00.445Z,101455.40
2023-04-02T17:51:39.929Z,101460.15
2023-04-02T17:54:28.504Z,101466.16
2023-04-02T17:57:28.395Z,101469.02
2023-04-02T18:00:41.858Z,101478.55
2023-04-02T18:03:51.268Z,101483.87
2023-04-02T18:06:27.828Z,101485.14
2023-04-02T18:09:36.768Z,101493.70
2023-04-02T18:12:24.824Z,101500.90
2023-04-02T18:15:09.325Z,101508.83
2023-04-02T18:17:54.219Z,101510.15
2023-04-02T18:20:32.873Z,101519.42
2023-04-02T18:23:11.195Z,101527.14
2023-04-02T18:25:54.163Z,101536.05
2023-04-02T18:28:46.743Z,101542.95
2023-04-02T18:31:27.143Z,101548.46
2023-04-02T18:34:45.645Z,101552.96
2023-04-02T18:37:23.881Z,101561.59
2023-04-02T18:40:37.150Z,101568.02
2023-04-02T18:43:27.529Z,101576.91
2023-04-02T18:46:04.984Z,101579.94
2023-04-02T18:48:45.067Z,101591.73
2023-04-02T18:51:21.110Z,101599.06
2023-04-02T18:53:55.202Z,101604.02
2023-04-02T18:56:28.999Z,101603.59
2023-04-02T18:59:12.449Z,101610.36
2023-04-02T19:01:48.958Z,101616.48
2023-04-02T19:04:25.393Z,101617.58
2023-04-02T19:07:02.960Z,101618.80
2023-04-02T19:09:38.306Z,101627.48
2023-04-02T19:12:19.933Z,101634.19
2023-04-02T19:14:52.471Z,101635.48
2023-04-02T19:17:29.736Z,101641.10
2023-04-02T19:20:07.982Z,101645.77
2023-04-02T19:22:46.054Z,101650.59
2023-04-02T19:25:41.193Z,101653.09
2023-04-02T19:28:24.098Z,101663.11
2023-04-02T19:31:30.833Z,101665.98
2023-04-02T19:34:09.219Z,101669.87
2023-04-02T19:36:51.227Z,101676.98
2023-04-02T19:39:59.163Z,101679.45
2023-04-02T19:42:42.419Z,101691.32
2023-04-02T19:45:40.120Z,101694.21
2023-04-02T19:48:16.874Z,101697.13
2023-04-02T19:50:48.847Z,101704.04
2023-04-02T19:53:20.018Z,101709.71
2023-04-02T19:55:49.119Z,101708.45
2023-04-02T19:58:26.180Z,101708.91
2023-04-02T20:00:58.789Z,101711.66
2023-04-02T20:03:30.166Z,101717.70
2023-04-02T20:06:00.858Z,101720.56
2023-04-02T20:08:33.062Z,101723.52
2023-04-02T20:11:04.123Z,101727.01
2023-04-02T20:13:33.292Z,101727.80
2023-04-02T20:16:05.845Z,101735.10
2023-04-02T20:18:36.563Z,101736.70
2023-04-02T20:21:08.410Z,101740.65
2023-04-02T20:23:39.117Z,101743.75
2023-04-02T20:26:10.571Z,101749.80
2023-04-02T20:28:41.321Z,101747.65
2023-04-02T20:31:14.037Z,101753.34
2023-04-02T20:33:45.184Z,101755.84
2023-04-02T20:36:17.968Z,101756.52
2023-04-02T20:38:48.625Z,101759.53
2023-04-02T20:41:19.837Z,101763.20
2023-04-02T20:43:50.521Z,101764.94
2023-04-02T20:46:21.198Z,101768.56
2023-04-02T20:48:51.851Z,101770.45
2023-04-02T20:51:22.664Z,101779.31
2023-04-02T20:53:53.432Z,101782.69
2023-04-02T20:56:27.263Z,101788.83
2023-04-02T20:58:57.935Z,101791.23
2023-04-02T21:01:30.970Z,101794.48
2023-04-02T21:04:03.524Z,101794.71
2023-04-02T21:06:36.561Z,101796.37
2023-04-02T21:09:11.248Z,101797.86
2023-04-02T21:11:41.989Z,101798.80
2023-04-02T21:14:13.102Z,101797.52
2023-04-02T21:16:42.196Z,101800.45
2023-04-02T21:19:13.016Z,101803.80
2023-04-02T21:21:43.689Z,101807.13
2023-04-02T21:24:14.419Z,101807.48
2023-04-02T21:26:45.066Z,101812.05
2023-04-02T21:29:16.481Z,101815.39
2023-04-02T21:31:47.276Z,101813.15
2023-04-02T21:34:28.583Z,101818.84
2023-04-02T21:36:59.277Z,101823.81
2023-04-02T21:39:29.961Z,101823.40
2023-04-02T21:42:01.616Z,101829.52
2023-04-02T21:44:32.329Z,101835.52
2023-04-02T21:47:03.054Z,101842.04
2023-04-02T21:49:33.753Z,101841.77
2023-04-02T21:52:04.514Z,101844.04
2023-04-02T21:54:35.127Z,101846.03
2023-04-02T21:57:05.929Z,101846.06
2023-04-02T21:59:36.721Z,101848.77
2023-04-02T22:02:07.382Z,101847.65
2023-04-02T22:04:38.003Z,101850.43
2023-04-02T22:07:11.511Z,101850.27
2023-04-02T22:09:52.064Z,101850.20
2023-04-02T22:12:22.907Z,101852.09
2023-04-02T22:14:53.604Z,101852.66
2023-04-02T22:17:24.313Z,101855.95
2023-04-02T22:19:57.482Z,101852.45
2023-04-02T22:22:28.125Z,101852.70
2023-04-02T22:24:58.861Z,101856.34
2023-04-02T22:27:29.560Z,101860.29
2023-04-02T22:30:00.219Z,101859.80
2023-04-02T22:32:30.968Z,101865.09
2023-04-02T22:35:01.667Z,101862.71
2023-04-02T22:37:32.508Z,101870.90
2023-04-02T22:40:03.382Z,101870.95
2023-04-02T22:42:34.604Z,101872.89
2023-04-02T22:45:06.368Z,101873.21
2023-04-02T22:47:37.102Z,101875.57
2023-04-02T22:50:09.224Z,101871.13
2023-04-02T22:52:39.861Z,101872.73
2023-04-02T22:55:13.688Z,101876.73
2023-04-02T22:57:44.748Z,101883.41
2023-04-02T23:00:15.636Z,101890.64
2023-04-02T23:02:46.361Z,101893.46
2023-04-02T23:05:17.267Z,101891.79
2023-04-02T23:07:48.944Z,101894.84
2023-04-02T23:10:19.793Z,101891.36
2023-04-02T23:12:50.587Z,101891.94
2023-04-02T23:15:21.175Z,101893.35
2023-04-02T23:17:51.880Z,101895.34
2023-04-02T23:20:22.532Z,101900.06
2023-04-02T23:22:53.184Z,101903.45
2023-04-02T23:25:23.809Z,101902.73
2023-04-02T23:27:54.465Z,101906.45
2023-04-02T23:30:25.191Z,101906.95
2023-04-02T23:32:55.884Z,101903.64
2023-04-02T23:35:26.616Z,101903.35
2023-04-02T23:37:57.283Z,101903.84
2023-04-02T23:40:27.983Z,101902.08
2023-04-02T23:43:05.407Z,101903.27
2023-04-02T23:45:36.054Z,101907.47
2023-04-02T23:48:08.395Z,101905.87
2023-04-02T23:50:39.204Z,101913.02
2023-04-02T23:53:09.909Z,101912.54
2023-04-02T23:55:40.721Z,101915.44
2023-04-02T23:58:11.461Z,101915.65
